createdAt,value
2019-01-03T00:00:34.748Z,95.80
2019-01-03T00:03:35.229Z,95.90
2019-01-03T00:09:42.645Z,96.10
2019-01-03T00:12:44.098Z,96.00
2019-01-03T00:15:44.494Z,96.00
2019-01-03T00:21:35.528Z,95.90
2019-01-03T00:24:43.757Z,95.90
2019-01-03T00:30:27.759Z,95.80
2019-01-03T00:33:28.558Z,95.80
2019-01-03T00:42:23.168Z,95.50
2019-01-03T00:47:55.257Z,95.70
2019-01-03T00:51:03.129Z,95.80
2019-01-03T00:54:03.113Z,95.70
2019-01-03T00:57:04.871Z,95.70
2019-01-03T01:00:05.347Z,95.90
2019-01-03T01:02:45.330Z,96.10
2019-01-03T01:05:45.365Z,96.30
2019-01-03T01:08:36.927Z,96.30
2019-01-03T01:14:42.311Z,96.70
2019-01-03T01:17:42.495Z,96.60
2019-01-03T01:20:48.746Z,96.50
2019-01-03T01:26:56.002Z,96.30
2019-01-03T01:29:55.948Z,96.30
2019-01-03T01:32:56.631Z,96.40
2019-01-03T01:35:57.012Z,96.40
2019-01-03T01:41:49.162Z,96.40
2019-01-03T01:44:56.626Z,96.40
2019-01-03T01:47:59.581Z,96.30
2019-01-03T01:51:02.427Z,96.20
2019-01-03T01:56:59.000Z,96.10
2019-01-03T02:00:06.444Z,96.00
2019-01-03T02:05:54.281Z,96.20
2019-01-03T02:08:54.633Z,96.00
2019-01-03T02:11:54.740Z,96.00
2019-01-03T02:14:54.429Z,96.10
2019-01-03T02:17:54.737Z,96.00
2019-01-03T02:23:47.710Z,95.90
2019-01-03T02:26:48.314Z,96.00
2019-01-03T02:29:49.384Z,96.10
2019-01-03T02:32:49.558Z,96.20
2019-01-03T02:35:31.505Z,96.10
2019-01-03T02:41:41.305Z,96.20
2019-01-03T02:44:35.535Z,96.10
2019-01-03T02:47:41.704Z,95.90
2019-01-03T02:53:44.344Z,95.80
2019-01-03T02:56:32.689Z,95.70
2019-01-03T02:59:40.200Z,95.50
2019-01-03T03:02:40.721Z,95.90
2019-01-03T03:05:34.968Z,95.40
2019-01-03T03:08:39.205Z,95.20
2019-01-03T03:11:39.174Z,95.50
2019-01-03T03:14:45.426Z,95.70
2019-01-03T03:20:53.298Z,95.40
2019-01-03T03:23:53.621Z,95.60
2019-01-03T03:26:54.277Z,95.80
2019-01-03T03:32:56.340Z,96.00
2019-01-03T03:35:56.450Z,96.00
2019-01-03T03:38:56.109Z,96.10
2019-01-03T03:45:04.339Z,96.30
2019-01-03T03:47:59.712Z,96.30
2019-01-03T03:54:12.366Z,96.50
2019-01-03T03:57:12.739Z,96.60
2019-01-03T04:00:14.380Z,96.80
2019-01-03T04:03:14.831Z,96.70
2019-01-03T04:06:15.012Z,96.80
2019-01-03T04:09:18.283Z,96.90
2019-01-03T04:12:24.346Z,96.50
2019-01-03T04:15:27.192Z,96.70
2019-01-03T04:18:23.837Z,97.00
2019-01-03T04:21:27.200Z,97.10
2019-01-03T04:24:27.683Z,97.20
2019-01-03T04:27:34.081Z,97.10
2019-01-03T04:33:19.141Z,97.10
2019-01-03T04:36:19.495Z,97.30
2019-01-03T04:42:05.116Z,97.70
2019-01-03T04:48:04.413Z,97.80
2019-01-03T04:51:03.981Z,97.80
2019-01-03T04:54:04.253Z,97.70
2019-01-03T04:57:05.049Z,97.60
2019-01-03T05:03:12.405Z,97.40
2019-01-03T05:06:12.616Z,97.60
2019-01-03T05:09:16.146Z,97.60
2019-01-03T05:12:22.362Z,97.50
2019-01-03T05:15:25.431Z,97.60
2019-01-03T05:18:20.376Z,97.70
2019-01-03T05:21:01.568Z,97.80
2019-01-03T05:24:04.943Z,97.90
2019-01-03T05:26:53.389Z,98.10
2019-01-03T05:30:01.119Z,98.20
2019-01-03T05:33:01.446Z,98.30
2019-01-03T05:36:01.861Z,98.40
2019-01-03T05:39:02.460Z,98.40
2019-01-03T05:41:56.344Z,98.60
2019-01-03T05:44:45.135Z,98.60
2019-01-03T05:47:35.429Z,98.50
2019-01-03T05:50:24.490Z,98.60
2019-01-03T05:53:33.018Z,98.60
2019-01-03T05:56:21.706Z,98.80
2019-01-03T06:02:25.268Z,99.10
2019-01-03T06:08:18.220Z,99.20
2019-01-03T06:11:25.628Z,99.10
2019-01-03T06:14:26.275Z,99.20
2019-01-03T06:17:26.639Z,99.10
2019-01-03T06:20:29.450Z,98.90
2019-01-03T06:23:29.559Z,98.80
2019-01-03T06:26:31.035Z,98.80
2019-01-03T06:29:31.280Z,98.80
2019-01-03T06:32:31.691Z,98.60
2019-01-03T06:35:38.513Z,98.40
2019-01-03T06:41:31.244Z,98.30
2019-01-03T06:44:35.495Z,98.30
2019-01-03T06:47:41.612Z,98.40
2019-01-03T06:53:30.124Z,98.50
2019-01-03T06:59:28.194Z,98.30
2019-01-03T07:02:16.809Z,98.70
2019-01-03T07:05:18.966Z,98.30
2019-01-03T07:08:19.508Z,98.40
2019-01-03T07:11:25.779Z,98.50
2019-01-03T07:17:04.408Z,98.40
2019-01-03T07:25:40.893Z,98.30
2019-01-03T07:31:26.523Z,98.30
2019-01-03T07:34:26.910Z,98.20
2019-01-03T07:37:28.143Z,98.10
2019-01-03T07:40:20.877Z,98.20
2019-01-03T07:43:20.614Z,98.20
2019-01-03T07:49:08.329Z,98.20
2019-01-03T07:52:09.026Z,98.00
2019-01-03T07:55:09.646Z,98.10
2019-01-03T07:57:51.336Z,98.10
2019-01-03T08:00:51.833Z,98.00
2019-01-03T08:03:55.490Z,98.10
2019-01-03T08:09:57.420Z,98.30
2019-01-03T08:16:07.983Z,98.60
2019-01-03T08:19:14.492Z,98.70
2019-01-03T08:21:56.600Z,98.60
2019-01-03T08:30:53.577Z,98.00
2019-01-03T08:33:57.070Z,97.90
2019-01-03T08:39:46.087Z,97.90
2019-01-03T08:45:29.193Z,97.40
2019-01-03T08:48:35.779Z,97.50
2019-01-03T08:51:20.231Z,97.30
2019-01-03T08:57:29.167Z,97.40
2019-01-03T09:03:18.657Z,97.10
2019-01-03T09:06:21.410Z,97.20
2019-01-03T09:09:06.261Z,97.00
2019-01-03T09:14:50.807Z,96.90
2019-01-03T09:17:51.075Z,96.50
2019-01-03T09:20:51.291Z,96.40
2019-01-03T09:23:51.826Z,96.20
2019-01-03T09:29:26.154Z,95.80
2019-01-03T09:32:33.701Z,95.60
2019-01-03T09:35:36.959Z,95.30
2019-01-03T09:38:19.449Z,95.30
2019-01-03T09:41:21.607Z,95.30
2019-01-03T09:44:21.777Z,95.10
2019-01-03T09:46:51.165Z,95.00
2019-01-03T09:52:35.927Z,94.50
2019-01-03T09:55:17.252Z,94.50
2019-01-03T09:57:58.390Z,94.30
2019-01-03T10:00:41.064Z,94.50
2019-01-03T10:03:22.508Z,94.60
2019-01-03T10:06:04.441Z,94.40
2019-01-03T10:08:45.366Z,94.20
2019-01-03T10:11:26.962Z,94.40
2019-01-03T10:14:08.182Z,93.80
2019-01-03T10:16:49.436Z,93.70
2019-01-03T10:19:31.876Z,93.40
2019-01-03T10:22:13.621Z,93.60
2019-01-03T10:24:54.743Z,93.80
2019-01-03T10:27:35.717Z,94.10
2019-01-03T10:30:17.213Z,94.20
2019-01-03T10:32:58.957Z,94.40
2019-01-03T10:35:40.210Z,94.70
2019-01-03T10:41:18.831Z,93.70
2019-01-03T10:44:00.091Z,93.00
2019-01-03T10:49:16.622Z,93.00
2019-01-03T10:52:05.481Z,92.40
2019-01-03T10:54:46.807Z,92.60
2019-01-03T11:00:14.224Z,92.00
2019-01-03T11:05:37.601Z,93.20
2019-01-03T11:11:05.322Z,93.50
2019-01-03T11:16:29.019Z,94.20
2019-01-03T11:19:11.037Z,93.60
2019-01-03T11:21:52.582Z,92.90
2019-01-03T11:24:33.908Z,92.90
2019-01-03T11:27:16.174Z,93.00
2019-01-03T11:29:59.496Z,91.80
2019-01-03T11:32:41.627Z,91.50
2019-01-03T11:38:05.349Z,91.70
2019-01-03T11:43:35.958Z,90.60
2019-01-03T11:46:17.443Z,90.50
2019-01-03T11:48:47.383Z,90.10
2019-01-03T11:51:36.353Z,90.40
2019-01-03T11:54:17.486Z,90.70
2019-01-03T11:56:59.017Z,89.40
2019-01-03T11:59:40.053Z,90.30
2019-01-03T12:02:25.626Z,89.60
2019-01-03T12:05:04.193Z,90.00
2019-01-03T12:07:46.506Z,88.40
2019-01-03T12:10:27.676Z,88.10
2019-01-03T12:13:07.338Z,87.70
2019-01-03T12:15:48.314Z,87.30
2019-01-03T12:21:16.140Z,85.90
2019-01-03T12:23:57.934Z,85.50
2019-01-03T12:26:39.585Z,84.00
2019-01-03T12:29:20.580Z,81.60
2019-01-03T12:32:01.373Z,77.60
2019-01-03T12:34:42.786Z,77.30
2019-01-03T12:37:24.582Z,75.60
2019-01-03T12:40:06.219Z,74.10
2019-01-03T12:42:47.158Z,74.80
2019-01-03T12:45:29.097Z,75.90
2019-01-03T12:47:58.561Z,76.40
2019-01-03T12:50:46.951Z,75.70
2019-01-03T12:56:02.996Z,72.70
2019-01-03T12:58:51.624Z,71.70
2019-01-03T13:04:16.313Z,78.00
2019-01-03T13:07:04.811Z,81.00
2019-01-03T13:09:46.506Z,81.90
2019-01-03T13:12:27.910Z,82.60
2019-01-03T13:15:09.809Z,83.80
2019-01-03T13:17:51.151Z,83.70
2019-01-03T13:20:31.255Z,85.90
2019-01-03T13:23:12.775Z,87.20
2019-01-03T13:25:54.456Z,87.80
2019-01-03T13:28:36.006Z,88.80
2019-01-03T13:31:17.623Z,89.90
2019-01-03T13:36:44.710Z,90.20
2019-01-03T13:39:26.515Z,90.40
2019-01-03T13:42:07.947Z,90.70
2019-01-03T13:44:49.754Z,91.20
2019-01-03T13:47:30.933Z,91.20
2019-01-03T13:50:16.858Z,90.80
2019-01-03T13:55:32.270Z,89.90
2019-01-03T13:58:20.890Z,89.10
2019-01-03T14:01:02.820Z,89.40
2019-01-03T14:06:31.184Z,89.40
2019-01-03T14:11:57.763Z,90.40
2019-01-03T14:17:16.652Z,91.80
2019-01-03T14:20:06.109Z,92.10
2019-01-03T14:22:46.217Z,92.50
2019-01-03T14:25:27.486Z,92.50
2019-01-03T14:28:09.735Z,92.90
2019-01-03T14:30:52.088Z,93.10
2019-01-03T14:33:36.434Z,93.00
2019-01-03T14:36:18.086Z,92.90
2019-01-03T14:38:59.628Z,93.00
2019-01-03T14:41:41.409Z,92.50
2019-01-03T14:44:22.459Z,92.30
2019-01-03T14:47:05.036Z,92.80
2019-01-03T14:52:35.692Z,93.30
2019-01-03T14:55:05.698Z,93.60
2019-01-03T14:57:35.434Z,92.70
2019-01-03T15:00:24.305Z,92.10
2019-01-03T15:03:12.967Z,92.30
2019-01-03T15:08:45.482Z,91.80
2019-01-03T15:11:26.860Z,91.90
2019-01-03T15:14:08.218Z,91.90
2019-01-03T15:16:49.968Z,91.70
2019-01-03T15:19:31.204Z,92.20
2019-01-03T15:24:40.264Z,93.00
2019-01-03T15:27:30.000Z,92.80
2019-01-03T15:30:11.858Z,92.80
2019-01-03T15:32:53.032Z,92.60
2019-01-03T15:35:34.557Z,92.70
2019-01-03T15:38:16.519Z,93.10
2019-01-03T15:40:57.926Z,93.10
2019-01-03T15:43:39.034Z,93.20
2019-01-03T15:46:20.497Z,93.40
2019-01-03T15:51:46.328Z,94.20
2019-01-03T15:57:11.701Z,95.00
2019-01-03T16:02:50.163Z,95.30
2019-01-03T16:05:31.903Z,95.10
2019-01-03T16:08:13.856Z,95.50
2019-01-03T16:13:39.270Z,95.60
2019-01-03T16:19:06.848Z,95.90
2019-01-03T16:21:48.604Z,96.10
2019-01-03T16:24:30.053Z,96.10
2019-01-03T16:27:11.475Z,96.20
2019-01-03T16:29:53.240Z,96.30
2019-01-03T16:32:35.743Z,96.40
2019-01-03T16:35:17.606Z,96.50
2019-01-03T16:37:47.283Z,96.60
2019-01-03T16:40:36.166Z,96.80
2019-01-03T16:43:17.596Z,96.80
2019-01-03T16:45:59.850Z,96.80
2019-01-03T16:48:41.270Z,97.10
2019-01-03T16:51:23.038Z,97.20
2019-01-03T16:54:06.417Z,97.30
2019-01-03T16:56:35.671Z,97.40
2019-01-03T16:59:24.525Z,97.50
2019-01-03T17:02:06.255Z,97.60
2019-01-03T17:04:47.427Z,97.60
2019-01-03T17:07:16.911Z,97.60
2019-01-03T17:10:06.765Z,97.40
2019-01-03T17:12:50.491Z,97.50
2019-01-03T17:15:31.950Z,97.60
2019-01-03T17:18:12.689Z,97.70
2019-01-03T17:20:53.489Z,97.80
2019-01-03T17:23:35.500Z,97.70
2019-01-03T17:26:16.782Z,97.70
2019-01-03T17:29:00.560Z,97.70
2019-01-03T17:31:41.964Z,97.90
2019-01-03T17:34:23.150Z,97.90
2019-01-03T17:39:46.990Z,98.20
2019-01-03T17:42:16.558Z,98.30
2019-01-03T17:45:05.465Z,98.10
2019-01-03T17:47:54.004Z,97.90
2019-01-03T17:50:36.600Z,97.70
2019-01-03T17:53:17.472Z,97.70
2019-01-03T17:55:59.648Z,97.80
2019-01-03T17:58:40.939Z,97.70
2019-01-03T18:01:23.495Z,97.70
2019-01-03T18:03:53.105Z,97.60
2019-01-03T18:12:23.656Z,97.60
2019-01-03T18:15:05.103Z,97.40
2019-01-03T18:17:45.824Z,97.10
2019-01-03T18:20:27.268Z,97.10
2019-01-03T18:23:09.255Z,97.30
2019-01-03T18:25:50.398Z,97.50
2019-01-03T18:28:32.297Z,97.30
2019-01-03T18:31:13.646Z,97.30
2019-01-03T18:33:55.348Z,97.50
2019-01-03T18:36:37.103Z,97.60
2019-01-03T18:39:18.095Z,97.70
2019-01-03T18:41:59.865Z,97.60
2019-01-03T18:44:40.771Z,97.40
2019-01-03T18:47:22.444Z,97.20
2019-01-03T18:50:04.728Z,97.20
2019-01-03T18:52:46.144Z,97.30
2019-01-03T18:55:27.871Z,97.40
2019-01-03T18:58:08.839Z,97.60
2019-01-03T19:00:50.329Z,97.70
2019-01-03T19:03:31.819Z,97.90
2019-01-03T19:06:15.191Z,98.00
2019-01-03T19:08:57.635Z,98.10
2019-01-03T19:11:39.162Z,98.30
2019-01-03T19:17:05.605Z,98.40
2019-01-03T19:19:48.660Z,98.40
2019-01-03T19:22:30.270Z,98.40
2019-01-03T19:25:10.542Z,98.50
2019-01-03T19:27:52.922Z,98.60
2019-01-03T19:30:34.023Z,98.80
2019-01-03T19:33:15.622Z,98.90
2019-01-03T19:35:57.063Z,98.80
2019-01-03T19:38:39.462Z,98.50
2019-01-03T19:41:21.117Z,98.40
2019-01-03T19:44:03.703Z,98.10
2019-01-03T19:46:44.546Z,97.90
2019-01-03T19:49:25.863Z,98.00
2019-01-03T19:52:09.021Z,98.10
2019-01-03T19:54:50.306Z,98.10
2019-01-03T19:57:31.446Z,98.00
2019-01-03T20:00:00.923Z,97.70
2019-01-03T20:02:49.892Z,97.70
2019-01-03T20:05:38.811Z,97.90
2019-01-03T20:08:19.967Z,98.10
2019-01-03T20:14:13.942Z,98.20
2019-01-03T20:16:55.287Z,98.40
2019-01-03T20:19:36.612Z,98.40
2019-01-03T20:22:18.123Z,98.50
2019-01-03T20:25:00.468Z,98.40
2019-01-03T20:27:41.917Z,98.40
2019-01-03T20:30:23.825Z,98.60
2019-01-03T20:33:06.134Z,98.50
2019-01-03T20:35:49.561Z,98.60
2019-01-03T20:38:30.319Z,98.70
2019-01-03T20:41:11.940Z,98.80
2019-01-03T20:43:53.510Z,98.80
2019-01-03T20:46:36.189Z,99.10
2019-01-03T20:52:07.564Z,99.30
2019-01-03T20:54:37.063Z,99.30
2019-01-03T20:57:25.834Z,99.40
2019-01-03T21:03:22.300Z,99.30
2019-01-03T21:06:03.475Z,99.30
2019-01-03T21:08:44.290Z,99.20
2019-01-03T21:11:25.594Z,99.20
2019-01-03T21:14:06.938Z,99.20
2019-01-03T21:16:48.524Z,99.10
2019-01-03T21:19:30.391Z,98.70
2019-01-03T21:22:12.097Z,98.40
2019-01-03T21:24:56.563Z,98.40
2019-01-03T21:27:37.808Z,98.70
2019-01-03T21:30:18.613Z,98.90
2019-01-03T21:32:59.574Z,99.10
2019-01-03T21:35:40.888Z,99.00
2019-01-03T21:38:21.745Z,99.20
2019-01-03T21:41:02.590Z,99.30
2019-01-03T21:46:27.475Z,99.40
2019-01-03T21:49:08.561Z,99.20
2019-01-03T21:51:50.350Z,99.30
2019-01-03T21:54:31.867Z,99.30
2019-01-03T21:57:01.479Z,99.10
2019-01-03T21:59:42.192Z,99.10
2019-01-03T22:02:11.722Z,99.10
2019-01-03T22:05:00.346Z,99.00
2019-01-03T22:07:48.735Z,98.60
2019-01-03T22:10:37.252Z,98.40
2019-01-03T22:13:18.895Z,98.40
2019-01-03T22:15:59.894Z,98.40
2019-01-03T22:18:41.489Z,98.50
2019-01-03T22:21:23.106Z,98.40
2019-01-03T22:23:52.682Z,98.40
2019-01-03T22:26:41.332Z,98.20
2019-01-03T22:29:22.654Z,98.20
2019-01-03T22:32:04.304Z,98.10
2019-01-03T22:34:45.879Z,98.10
2019-01-03T22:40:11.873Z,98.00
2019-01-03T22:45:31.734Z,97.90
2019-01-03T22:48:13.647Z,97.80
2019-01-03T22:50:56.211Z,98.00
2019-01-03T22:53:38.071Z,97.90
2019-01-03T22:56:07.907Z,98.00
2019-01-03T22:58:56.791Z,98.00
2019-01-03T23:01:38.139Z,97.90
2019-01-03T23:04:18.991Z,97.90
2019-01-03T23:07:00.535Z,97.90
2019-01-03T23:09:43.404Z,97.80
2019-01-03T23:12:24.750Z,97.80
2019-01-03T23:15:06.260Z,97.80
2019-01-03T23:17:35.740Z,97.70
2019-01-03T23:20:24.575Z,98.00
2019-01-03T23:23:05.459Z,98.10
2019-01-03T23:25:47.046Z,98.00
2019-01-03T23:28:29.394Z,98.00
2019-01-03T23:31:11.528Z,97.90
2019-01-03T23:33:52.584Z,98.00
2019-01-03T23:36:34.280Z,98.00
2019-01-03T23:39:15.769Z,98.00
2019-01-03T23:41:56.559Z,98.20
2019-01-03T23:44:37.237Z,98.30
2019-01-03T23:47:18.543Z,98.20
2019-01-03T23:50:02.541Z,98.40
2019-01-03T23:52:43.702Z,98.80
2019-01-03T23:55:25.335Z,98.40
2019-01-03T23:58:07.074Z,98.60
